Terminal Aerodrome Forecast
Issued by NWS El Paso, TX

Home | Current Version | Previous Version | Text Only | Print | Product List | Glossary On
Versions: 1 2 3 4 5 6 7 8 9 10 11 12 13
000
FTUS44 KEPZ 071138
TAFELP
TAF
KELP 071138Z 0712/0812 03007KT P6SM SCT080 BKN200
     FM072200 09007KT P6SM VCTS SCT050CB BKN090 OVC180
     FM080400 10007KT P6SM SCT050 BKN110 OVC200=

USA.gov is the U.S. government's official web portal to all federal, state and local government web resources and services.